sensor_id;sensor_type;location;lat;lon;timestamp;P1;durP1;ratioP1;P2;durP2;ratioP2
19448;SDS011;9863;49.404;8.246;2022-08-30T00:02:23;0.40;;;0.40;;
19448;SDS011;9863;49.404;8.246;2022-08-30T00:04:52;0.55;;;0.50;;
19448;SDS011;9863;49.404;8.246;2022-08-30T00:07:21;0.38;;;0.38;;
19448;SDS011;9863;49.404;8.246;2022-08-30T00:09:49;0.93;;;0.73;;
19448;SDS011;9863;49.404;8.246;2022-08-30T00:12:18;0.30;;;0.30;;
19448;SDS011;9863;49.404;8.246;2022-08-30T00:14:47;0.35;;;0.35;;
19448;SDS011;9863;49.404;8.246;2022-08-30T00:17:15;0.50;;;0.50;;
19448;SDS011;9863;49.404;8.246;2022-08-30T00:19:45;0.38;;;0.38;;
19448;SDS011;9863;49.404;8.246;2022-08-30T00:22:13;0.30;;;0.30;;
19448;SDS011;9863;49.404;8.246;2022-08-30T00:24:42;0.50;;;0.50;;
19448;SDS011;9863;49.404;8.246;2022-08-30T00:27:10;0.15;;;0.15;;
19448;SDS011;9863;49.404;8.246;2022-08-30T00:29:38;0.20;;;0.20;;
19448;SDS011;9863;49.404;8.246;2022-08-30T00:32:07;0.38;;;0.38;;
19448;SDS011;9863;49.404;8.246;2022-08-30T00:34:35;0.40;;;0.40;;
19448;SDS011;9863;49.404;8.246;2022-08-30T00:37:03;0.88;;;0.73;;
19448;SDS011;9863;49.404;8.246;2022-08-30T00:39:32;0.40;;;0.40;;
19448;SDS011;9863;49.404;8.246;2022-08-30T00:42:00;0.30;;;0.30;;
19448;SDS011;9863;49.404;8.246;2022-08-30T00:44:29;0.30;;;0.30;;
19448;SDS011;9863;49.404;8.246;2022-08-30T00:46:57;0.40;;;0.40;;
19448;SDS011;9863;49.404;8.246;2022-08-30T00:49:25;0.43;;;0.43;;
19448;SDS011;9863;49.404;8.246;2022-08-30T00:51:55;0.32;;;0.32;;
19448;SDS011;9863;49.404;8.246;2022-08-30T00:54:25;0.35;;;0.35;;
19448;SDS011;9863;49.404;8.246;2022-08-30T00:56:53;0.40;;;0.40;;
19448;SDS011;9863;49.404;8.246;2022-08-30T00:59:22;0.40;;;0.40;;
19448;SDS011;9863;49.404;8.246;2022-08-30T01:01:52;0.50;;;0.50;;
19448;SDS011;9863;49.404;8.246;2022-08-30T01:04:21;1.52;;;1.33;;
19448;SDS011;9863;49.404;8.246;2022-08-30T01:06:52;0.55;;;0.52;;
19448;SDS011;9863;49.404;8.246;2022-08-30T01:09:20;0.50;;;0.50;;
19448;SDS011;9863;49.404;8.246;2022-08-30T01:11:49;0.40;;;0.40;;
19448;SDS011;9863;49.404;8.246;2022-08-30T01:14:17;0.63;;;0.63;;
19448;SDS011;9863;49.404;8.246;2022-08-30T01:16:52;0.38;;;0.38;;
19448;SDS011;9863;49.404;8.246;2022-08-30T01:25:16;0.43;;;0.43;;
19448;SDS011;9863;49.404;8.246;2022-08-30T01:28:00;0.55;;;0.55;;
19448;SDS011;9863;49.404;8.246;2022-08-30T01:30:35;0.50;;;0.40;;
19448;SDS011;9863;49.404;8.246;2022-08-30T01:33:09;0.65;;;0.55;;
19448;SDS011;9863;49.404;8.246;2022-08-30T01:35:57;0.45;;;0.40;;
19448;SDS011;9863;49.404;8.246;2022-08-30T01:38:38;0.50;;;0.50;;
19448;SDS011;9863;49.404;8.246;2022-08-30T01:41:18;0.60;;;0.50;;
19448;SDS011;9863;49.404;8.246;2022-08-30T01:43:53;0.47;;;0.47;;
19448;SDS011;9863;49.404;8.246;2022-08-30T01:46:26;0.40;;;0.40;;
19448;SDS011;9863;49.404;8.246;2022-08-30T01:49:03;0.55;;;0.55;;
19448;SDS011;9863;49.404;8.246;2022-08-30T01:51:37;0.47;;;0.47;;
19448;SDS011;9863;49.404;8.246;2022-08-30T01:54:06;0.50;;;0.50;;
19448;SDS011;9863;49.404;8.246;2022-08-30T01:56:35;0.93;;;0.73;;
19448;SDS011;9863;49.404;8.246;2022-08-30T01:59:03;0.50;;;0.50;;
19448;SDS011;9863;49.404;8.246;2022-08-30T02:01:32;0.55;;;0.50;;
19448;SDS011;9863;49.404;8.246;2022-08-30T02:04:03;0.65;;;0.60;;
19448;SDS011;9863;49.404;8.246;2022-08-30T02:06:34;0.65;;;0.57;;
19448;SDS011;9863;49.404;8.246;2022-08-30T02:09:05;0.17;;;0.17;;
19448;SDS011;9863;49.404;8.246;2022-08-30T02:11:33;0.80;;;0.70;;
19448;SDS011;9863;49.404;8.246;2022-08-30T02:14:02;0.50;;;0.40;;
19448;SDS011;9863;49.404;8.246;2022-08-30T02:16:31;0.52;;;0.50;;
19448;SDS011;9863;49.404;8.246;2022-08-30T02:18:59;0.50;;;0.50;;
19448;SDS011;9863;49.404;8.246;2022-08-30T02:21:27;0.88;;;0.88;;
19448;SDS011;9863;49.404;8.246;2022-08-30T02:23:57;0.30;;;0.30;;
19448;SDS011;9863;49.404;8.246;2022-08-30T02:26:25;0.95;;;0.82;;
19448;SDS011;9863;49.404;8.246;2022-08-30T02:28:53;1.02;;;0.88;;
19448;SDS011;9863;49.404;8.246;2022-08-30T02:31:25;0.40;;;0.40;;
19448;SDS011;9863;49.404;8.246;2022-08-30T02:33:53;0.38;;;0.38;;
19448;SDS011;9863;49.404;8.246;2022-08-30T02:36:22;0.40;;;0.40;;
19448;SDS011;9863;49.404;8.246;2022-08-30T02:38:50;0.38;;;0.38;;
19448;SDS011;9863;49.404;8.246;2022-08-30T02:41:18;0.50;;;0.43;;
19448;SDS011;9863;49.404;8.246;2022-08-30T02:43:46;1.02;;;0.68;;
19448;SDS011;9863;49.404;8.246;2022-08-30T02:46:15;0.52;;;0.45;;
19448;SDS011;9863;49.404;8.246;2022-08-30T02:48:44;0.60;;;0.60;;
19448;SDS011;9863;49.404;8.246;2022-08-30T02:51:13;0.40;;;0.40;;
19448;SDS011;9863;49.404;8.246;2022-08-30T02:53:41;1.08;;;1.00;;
19448;SDS011;9863;49.404;8.246;2022-08-30T02:56:11;0.60;;;0.50;;
19448;SDS011;9863;49.404;8.246;2022-08-30T02:58:40;0.30;;;0.30;;
19448;SDS011;9863;49.404;8.246;2022-08-30T03:01:10;0.55;;;0.50;;
19448;SDS011;9863;49.404;8.246;2022-08-30T03:03:41;0.73;;;0.60;;
19448;SDS011;9863;49.404;8.246;2022-08-30T03:06:10;0.40;;;0.40;;
19448;SDS011;9863;49.404;8.246;2022-08-30T03:08:39;0.80;;;0.60;;
19448;SDS011;9863;49.404;8.246;2022-08-30T03:11:08;0.40;;;0.40;;
19448;SDS011;9863;49.404;8.246;2022-08-30T03:13:36;1.40;;;0.98;;
19448;SDS011;9863;49.404;8.246;2022-08-30T03:16:04;0.63;;;0.63;;
19448;SDS011;9863;49.404;8.246;2022-08-30T03:18:33;0.30;;;0.30;;
19448;SDS011;9863;49.404;8.246;2022-08-30T03:21:01;0.30;;;0.30;;
19448;SDS011;9863;49.404;8.246;2022-08-30T03:23:32;0.93;;;0.82;;
19448;SDS011;9863;49.404;8.246;2022-08-30T03:26:01;0.60;;;0.60;;
19448;SDS011;9863;49.404;8.246;2022-08-30T03:28:29;0.40;;;0.40;;
19448;SDS011;9863;49.404;8.246;2022-08-30T03:30:57;0.43;;;0.40;;
19448;SDS011;9863;49.404;8.246;2022-08-30T03:33:26;0.50;;;0.50;;
19448;SDS011;9863;49.404;8.246;2022-08-30T03:35:54;0.50;;;0.50;;
19448;SDS011;9863;49.404;8.246;2022-08-30T03:38:22;0.55;;;0.50;;
19448;SDS011;9863;49.404;8.246;2022-08-30T03:40:51;0.43;;;0.43;;
19448;SDS011;9863;49.404;8.246;2022-08-30T03:43:19;0.70;;;0.60;;
19448;SDS011;9863;49.404;8.246;2022-08-30T03:45:49;0.20;;;0.20;;
19448;SDS011;9863;49.404;8.246;2022-08-30T03:48:17;0.40;;;0.40;;
19448;SDS011;9863;49.404;8.246;2022-08-30T03:50:46;0.60;;;0.60;;
19448;SDS011;9863;49.404;8.246;2022-08-30T03:53:14;0.50;;;0.50;;
19448;SDS011;9863;49.404;8.246;2022-08-30T03:55:42;0.77;;;0.77;;
19448;SDS011;9863;49.404;8.246;2022-08-30T03:58:12;0.75;;;0.60;;
19448;SDS011;9863;49.404;8.246;2022-08-30T04:00:45;0.50;;;0.50;;
19448;SDS011;9863;49.404;8.246;2022-08-30T04:03:13;0.50;;;0.50;;
19448;SDS011;9863;49.404;8.246;2022-08-30T04:05:41;0.40;;;0.40;;
19448;SDS011;9863;49.404;8.246;2022-08-30T04:08:11;0.73;;;0.60;;
19448;SDS011;9863;49.404;8.246;2022-08-30T04:10:39;0.40;;;0.40;;
19448;SDS011;9863;49.404;8.246;2022-08-30T04:13:07;0.60;;;0.50;;
19448;SDS011;9863;49.404;8.246;2022-08-30T04:15:35;0.77;;;0.60;;
19448;SDS011;9863;49.404;8.246;2022-08-30T04:18:04;0.93;;;0.70;;
19448;SDS011;9863;49.404;8.246;2022-08-30T04:20:32;0.93;;;0.68;;
19448;SDS011;9863;49.404;8.246;2022-08-30T04:23:01;0.60;;;0.57;;
19448;SDS011;9863;49.404;8.246;2022-08-30T04:25:30;0.63;;;0.60;;
19448;SDS011;9863;49.404;8.246;2022-08-30T04:27:58;0.30;;;0.30;;
19448;SDS011;9863;49.404;8.246;2022-08-30T04:30:26;0.30;;;0.30;;
19448;SDS011;9863;49.404;8.246;2022-08-30T04:32:55;0.65;;;0.65;;
19448;SDS011;9863;49.404;8.246;2022-08-30T04:35:25;0.30;;;0.30;;
19448;SDS011;9863;49.404;8.246;2022-08-30T04:37:53;0.47;;;0.47;;
19448;SDS011;9863;49.404;8.246;2022-08-30T04:40:21;0.38;;;0.38;;
19448;SDS011;9863;49.404;8.246;2022-08-30T04:42:50;0.55;;;0.55;;
19448;SDS011;9863;49.404;8.246;2022-08-30T04:45:24;0.50;;;0.50;;
19448;SDS011;9863;49.404;8.246;2022-08-30T04:47:52;0.50;;;0.50;;
19448;SDS011;9863;49.404;8.246;2022-08-30T04:50:23;1.00;;;0.80;;
19448;SDS011;9863;49.404;8.246;2022-08-30T04:52:51;0.50;;;0.50;;
19448;SDS011;9863;49.404;8.246;2022-08-30T04:55:20;0.40;;;0.40;;
19448;SDS011;9863;49.404;8.246;2022-08-30T04:57:48;0.47;;;0.47;;
19448;SDS011;9863;49.404;8.246;2022-08-30T05:00:16;0.60;;;0.60;;
19448;SDS011;9863;49.404;8.246;2022-08-30T05:02:49;0.50;;;0.50;;
19448;SDS011;9863;49.404;8.246;2022-08-30T05:05:17;0.38;;;0.38;;
19448;SDS011;9863;49.404;8.246;2022-08-30T05:08:05;0.57;;;0.57;;
19448;SDS011;9863;49.404;8.246;2022-08-30T05:10:44;0.50;;;0.50;;
19448;SDS011;9863;49.404;8.246;2022-08-30T05:13:15;0.60;;;0.60;;
19448;SDS011;9863;49.404;8.246;2022-08-30T05:15:45;0.50;;;0.50;;
19448;SDS011;9863;49.404;8.246;2022-08-30T05:18:14;0.45;;;0.45;;
19448;SDS011;9863;49.404;8.246;2022-08-30T05:20:42;0.47;;;0.47;;
19448;SDS011;9863;49.404;8.246;2022-08-30T05:23:11;0.65;;;0.65;;
19448;SDS011;9863;49.404;8.246;2022-08-30T05:25:40;0.30;;;0.30;;
19448;SDS011;9863;49.404;8.246;2022-08-30T05:28:09;0.30;;;0.30;;
19448;SDS011;9863;49.404;8.246;2022-08-30T05:30:37;0.43;;;0.43;;
19448;SDS011;9863;49.404;8.246;2022-08-30T05:33:05;0.45;;;0.45;;
19448;SDS011;9863;49.404;8.246;2022-08-30T05:35:34;0.47;;;0.47;;
19448;SDS011;9863;49.404;8.246;2022-08-30T05:38:02;0.65;;;0.65;;
19448;SDS011;9863;49.404;8.246;2022-08-30T05:40:32;0.70;;;0.70;;
19448;SDS011;9863;49.404;8.246;2022-08-30T05:43:02;0.55;;;0.52;;
19448;SDS011;9863;49.404;8.246;2022-08-30T05:45:30;0.75;;;0.75;;
19448;SDS011;9863;49.404;8.246;2022-08-30T05:47:58;0.65;;;0.65;;
19448;SDS011;9863;49.404;8.246;2022-08-30T05:50:27;0.50;;;0.50;;
19448;SDS011;9863;49.404;8.246;2022-08-30T05:52:56;0.32;;;0.32;;
19448;SDS011;9863;49.404;8.246;2022-08-30T05:55:24;0.30;;;0.30;;
19448;SDS011;9863;49.404;8.246;2022-08-30T05:57:52;0.40;;;0.40;;
19448;SDS011;9863;49.404;8.246;2022-08-30T06:00:20;0.50;;;0.50;;
19448;SDS011;9863;49.404;8.246;2022-08-30T06:02:52;0.80;;;0.80;;
19448;SDS011;9863;49.404;8.246;2022-08-30T06:05:21;0.43;;;0.43;;
19448;SDS011;9863;49.404;8.246;2022-08-30T06:07:49;0.40;;;0.40;;
19448;SDS011;9863;49.404;8.246;2022-08-30T06:10:17;0.30;;;0.30;;
19448;SDS011;9863;49.404;8.246;2022-08-30T06:12:45;0.30;;;0.30;;
19448;SDS011;9863;49.404;8.246;2022-08-30T06:15:14;0.35;;;0.35;;
19448;SDS011;9863;49.404;8.246;2022-08-30T06:17:42;0.30;;;0.30;;
19448;SDS011;9863;49.404;8.246;2022-08-30T06:20:10;0.45;;;0.45;;
19448;SDS011;9863;49.404;8.246;2022-08-30T06:22:39;0.50;;;0.47;;
19448;SDS011;9863;49.404;8.246;2022-08-30T06:25:08;0.30;;;0.30;;
19448;SDS011;9863;49.404;8.246;2022-08-30T06:27:37;0.40;;;0.40;;
19448;SDS011;9863;49.404;8.246;2022-08-30T06:30:05;1.55;;;1.13;;
19448;SDS011;9863;49.404;8.246;2022-08-30T06:32:34;0.40;;;0.40;;
19448;SDS011;9863;49.404;8.246;2022-08-30T06:35:11;0.25;;;0.25;;
19448;SDS011;9863;49.404;8.246;2022-08-30T06:37:40;0.43;;;0.40;;
19448;SDS011;9863;49.404;8.246;2022-08-30T06:40:08;0.30;;;0.30;;
19448;SDS011;9863;49.404;8.246;2022-08-30T06:42:38;0.30;;;0.30;;
19448;SDS011;9863;49.404;8.246;2022-08-30T06:45:17;0.35;;;0.35;;
19448;SDS011;9863;49.404;8.246;2022-08-30T06:47:46;0.30;;;0.30;;
19448;SDS011;9863;49.404;8.246;2022-08-30T06:50:15;0.30;;;0.30;;
19448;SDS011;9863;49.404;8.246;2022-08-30T06:52:44;0.40;;;0.40;;
19448;SDS011;9863;49.404;8.246;2022-08-30T06:55:14;0.20;;;0.20;;
19448;SDS011;9863;49.404;8.246;2022-08-30T06:57:44;0.52;;;0.52;;
19448;SDS011;9863;49.404;8.246;2022-08-30T07:00:14;0.40;;;0.40;;
19448;SDS011;9863;49.404;8.246;2022-08-30T07:02:43;0.30;;;0.30;;
19448;SDS011;9863;49.404;8.246;2022-08-30T07:05:11;0.30;;;0.30;;
19448;SDS011;9863;49.404;8.246;2022-08-30T07:07:44;0.30;;;0.30;;
19448;SDS011;9863;49.404;8.246;2022-08-30T07:10:13;0.30;;;0.30;;
19448;SDS011;9863;49.404;8.246;2022-08-30T07:12:43;0.32;;;0.32;;
19448;SDS011;9863;49.404;8.246;2022-08-30T07:15:11;0.30;;;0.30;;
19448;SDS011;9863;49.404;8.246;2022-08-30T07:17:42;0.80;;;0.80;;
19448;SDS011;9863;49.404;8.246;2022-08-30T07:20:28;0.50;;;0.50;;
19448;SDS011;9863;49.404;8.246;2022-08-30T07:23:07;0.40;;;0.40;;
19448;SDS011;9863;49.404;8.246;2022-08-30T07:25:37;1.88;;;0.85;;
19448;SDS011;9863;49.404;8.246;2022-08-30T07:28:07;0.60;;;0.60;;
19448;SDS011;9863;49.404;8.246;2022-08-30T07:30:41;0.63;;;0.63;;
19448;SDS011;9863;49.404;8.246;2022-08-30T07:33:09;0.40;;;0.40;;
19448;SDS011;9863;49.404;8.246;2022-08-30T07:35:37;0.22;;;0.22;;
19448;SDS011;9863;49.404;8.246;2022-08-30T07:38:05;0.57;;;0.57;;
19448;SDS011;9863;49.404;8.246;2022-08-30T07:40:40;0.57;;;0.57;;
19448;SDS011;9863;49.404;8.246;2022-08-30T07:43:08;0.40;;;0.40;;
19448;SDS011;9863;49.404;8.246;2022-08-30T07:45:37;0.30;;;0.30;;
19448;SDS011;9863;49.404;8.246;2022-08-30T07:48:06;0.40;;;0.40;;
19448;SDS011;9863;49.404;8.246;2022-08-30T07:50:34;0.70;;;0.60;;
19448;SDS011;9863;49.404;8.246;2022-08-30T07:53:02;0.47;;;0.47;;
19448;SDS011;9863;49.404;8.246;2022-08-30T07:55:36;0.30;;;0.30;;
19448;SDS011;9863;49.404;8.246;2022-08-30T07:58:05;0.40;;;0.40;;
19448;SDS011;9863;49.404;8.246;2022-08-30T08:00:33;1.17;;;0.93;;
19448;SDS011;9863;49.404;8.246;2022-08-30T08:03:07;0.30;;;0.30;;
19448;SDS011;9863;49.404;8.246;2022-08-30T08:05:37;0.80;;;0.60;;
19448;SDS011;9863;49.404;8.246;2022-08-30T08:08:07;0.50;;;0.50;;
19448;SDS011;9863;49.404;8.246;2022-08-30T08:10:37;1.10;;;0.75;;
19448;SDS011;9863;49.404;8.246;2022-08-30T08:13:07;0.70;;;0.70;;
19448;SDS011;9863;49.404;8.246;2022-08-30T08:15:36;0.35;;;0.35;;
19448;SDS011;9863;49.404;8.246;2022-08-30T08:18:05;0.10;;;0.10;;
19448;SDS011;9863;49.404;8.246;2022-08-30T08:20:33;0.32;;;0.32;;
19448;SDS011;9863;49.404;8.246;2022-08-30T08:23:01;0.22;;;0.22;;
19448;SDS011;9863;49.404;8.246;2022-08-30T08:25:30;0.10;;;0.10;;
19448;SDS011;9863;49.404;8.246;2022-08-30T08:27:59;0.20;;;0.20;;
19448;SDS011;9863;49.404;8.246;2022-08-30T08:30:32;0.10;;;0.10;;
19448;SDS011;9863;49.404;8.246;2022-08-30T08:33:03;0.20;;;0.20;;
19448;SDS011;9863;49.404;8.246;2022-08-30T08:35:32;0.10;;;0.10;;
19448;SDS011;9863;49.404;8.246;2022-08-30T08:38:00;0.40;;;0.40;;
19448;SDS011;9863;49.404;8.246;2022-08-30T08:40:29;0.22;;;0.22;;
19448;SDS011;9863;49.404;8.246;2022-08-30T08:43:31;0.20;;;0.20;;
19448;SDS011;9863;49.404;8.246;2022-08-30T08:51:28;0.10;;;0.10;;
19448;SDS011;9863;49.404;8.246;2022-08-30T08:57:07;0.10;;;0.10;;
19448;SDS011;9863;49.404;8.246;2022-08-30T08:59:42;0.10;;;0.10;;
19448;SDS011;9863;49.404;8.246;2022-08-30T09:02:57;0.10;;;0.10;;
19448;SDS011;9863;49.404;8.246;2022-08-30T09:05:14;0.30;;;0.30;;
19448;SDS011;9863;49.404;8.246;2022-08-30T09:07:51;0.10;;;0.10;;
19448;SDS011;9863;49.404;8.246;2022-08-30T09:11:03;0.20;;;0.20;;
19448;SDS011;9863;49.404;8.246;2022-08-30T09:13:42;0.30;;;0.30;;
19448;SDS011;9863;49.404;8.246;2022-08-30T09:16:10;0.10;;;0.10;;
19448;SDS011;9863;49.404;8.246;2022-08-30T09:24:41;0.10;;;0.10;;
19448;SDS011;9863;49.404;8.246;2022-08-30T09:27:22;0.00;;;0.00;;
19448;SDS011;9863;49.404;8.246;2022-08-30T09:35:41;0.00;;;0.00;;
19448;SDS011;9863;49.404;8.246;2022-08-30T09:38:33;0.10;;;0.10;;
19448;SDS011;9863;49.404;8.246;2022-08-30T09:44:27;0.13;;;0.13;;
19448;SDS011;9863;49.404;8.246;2022-08-30T09:47:38;0.25;;;0.25;;
19448;SDS011;9863;49.404;8.246;2022-08-30T09:50:30;0.08;;;0.08;;
19448;SDS011;9863;49.404;8.246;2022-08-30T09:53:24;0.22;;;0.22;;
19448;SDS011;9863;49.404;8.246;2022-08-30T10:05:14;0.20;;;0.20;;
19448;SDS011;9863;49.404;8.246;2022-08-30T10:11:27;0.10;;;0.10;;
19448;SDS011;9863;49.404;8.246;2022-08-30T10:14:37;0.10;;;0.10;;
19448;SDS011;9863;49.404;8.246;2022-08-30T10:17:45;0.10;;;0.10;;
19448;SDS011;9863;49.404;8.246;2022-08-30T10:23:55;0.20;;;0.20;;
19448;SDS011;9863;49.404;8.246;2022-08-30T10:30:03;0.25;;;0.25;;
19448;SDS011;9863;49.404;8.246;2022-08-30T10:35:52;0.17;;;0.17;;
19448;SDS011;9863;49.404;8.246;2022-08-30T10:38:33;0.25;;;0.25;;
19448;SDS011;9863;49.404;8.246;2022-08-30T10:44:18;0.30;;;0.30;;
19448;SDS011;9863;49.404;8.246;2022-08-30T10:47:10;0.57;;;0.40;;
19448;SDS011;9863;49.404;8.246;2022-08-30T10:50:14;0.35;;;0.35;;
19448;SDS011;9863;49.404;8.246;2022-08-30T10:58:21;0.17;;;0.17;;
19448;SDS011;9863;49.404;8.246;2022-08-30T11:13:08;0.20;;;0.20;;
19448;SDS011;9863;49.404;8.246;2022-08-30T11:18:28;0.20;;;0.20;;
19448;SDS011;9863;49.404;8.246;2022-08-30T11:21:20;0.20;;;0.20;;
19448;SDS011;9863;49.404;8.246;2022-08-30T11:24:22;0.20;;;0.20;;
19448;SDS011;9863;49.404;8.246;2022-08-30T11:26:57;0.10;;;0.10;;
19448;SDS011;9863;49.404;8.246;2022-08-30T11:29:30;0.22;;;0.22;;
19448;SDS011;9863;49.404;8.246;2022-08-30T11:40:08;0.10;;;0.10;;
19448;SDS011;9863;49.404;8.246;2022-08-30T11:52:24;0.40;;;0.38;;
19448;SDS011;9863;49.404;8.246;2022-08-30T11:55:42;0.40;;;0.30;;
19448;SDS011;9863;49.404;8.246;2022-08-30T11:59:16;0.40;;;0.30;;
19448;SDS011;9863;49.404;8.246;2022-08-30T12:02:05;0.60;;;0.47;;
19448;SDS011;9863;49.404;8.246;2022-08-30T12:13:59;0.40;;;0.30;;
19448;SDS011;9863;49.404;8.246;2022-08-30T12:16:55;0.60;;;0.60;;
19448;SDS011;9863;49.404;8.246;2022-08-30T12:19:53;0.32;;;0.30;;
19448;SDS011;9863;49.404;8.246;2022-08-30T12:22:24;0.10;;;0.10;;
19448;SDS011;9863;49.404;8.246;2022-08-30T12:24:56;0.13;;;0.13;;
19448;SDS011;9863;49.404;8.246;2022-08-30T12:27:30;0.20;;;0.20;;
19448;SDS011;9863;49.404;8.246;2022-08-30T12:30:24;0.45;;;0.35;;
19448;SDS011;9863;49.404;8.246;2022-08-30T12:33:22;0.70;;;0.52;;
19448;SDS011;9863;49.404;8.246;2022-08-30T12:36:37;0.77;;;0.50;;
19448;SDS011;9863;49.404;8.246;2022-08-30T12:42:30;1.23;;;0.63;;
19448;SDS011;9863;49.404;8.246;2022-08-30T12:45:49;0.40;;;0.32;;
19448;SDS011;9863;49.404;8.246;2022-08-30T12:48:40;0.60;;;0.50;;
19448;SDS011;9863;49.404;8.246;2022-08-30T12:51:24;0.63;;;0.40;;
19448;SDS011;9863;49.404;8.246;2022-08-30T12:54:22;1.20;;;0.60;;
19448;SDS011;9863;49.404;8.246;2022-08-30T12:56:58;0.45;;;0.28;;
19448;SDS011;9863;49.404;8.246;2022-08-30T13:00:29;0.50;;;0.30;;
19448;SDS011;9863;49.404;8.246;2022-08-30T13:06:34;0.50;;;0.30;;
19448;SDS011;9863;49.404;8.246;2022-08-30T13:09:35;0.55;;;0.47;;
19448;SDS011;9863;49.404;8.246;2022-08-30T13:12:29;0.50;;;0.30;;
19448;SDS011;9863;49.404;8.246;2022-08-30T13:15:19;0.47;;;0.35;;
19448;SDS011;9863;49.404;8.246;2022-08-30T13:18:27;0.75;;;0.38;;
19448;SDS011;9863;49.404;8.246;2022-08-30T13:23:57;0.55;;;0.38;;
19448;SDS011;9863;49.404;8.246;2022-08-30T13:26:33;0.68;;;0.45;;
19448;SDS011;9863;49.404;8.246;2022-08-30T13:29:10;0.90;;;0.50;;
19448;SDS011;9863;49.404;8.246;2022-08-30T13:31:46;1.40;;;0.77;;
19448;SDS011;9863;49.404;8.246;2022-08-30T13:34:44;1.30;;;0.70;;
19448;SDS011;9863;49.404;8.246;2022-08-30T13:37:31;1.77;;;1.00;;
19448;SDS011;9863;49.404;8.246;2022-08-30T13:40:36;0.45;;;0.38;;
19448;SDS011;9863;49.404;8.246;2022-08-30T13:43:26;0.45;;;0.35;;
19448;SDS011;9863;49.404;8.246;2022-08-30T13:45:56;1.20;;;0.63;;
19448;SDS011;9863;49.404;8.246;2022-08-30T13:48:24;0.63;;;0.40;;
19448;SDS011;9863;49.404;8.246;2022-08-30T13:50:53;2.28;;;1.27;;
19448;SDS011;9863;49.404;8.246;2022-08-30T13:53:24;1.58;;;0.82;;
19448;SDS011;9863;49.404;8.246;2022-08-30T13:56:12;0.93;;;0.50;;
19448;SDS011;9863;49.404;8.246;2022-08-30T13:58:41;0.90;;;0.52;;
19448;SDS011;9863;49.404;8.246;2022-08-30T14:01:12;0.77;;;0.50;;
19448;SDS011;9863;49.404;8.246;2022-08-30T14:04:01;1.00;;;0.60;;
19448;SDS011;9863;49.404;8.246;2022-08-30T14:07:06;0.80;;;0.50;;
19448;SDS011;9863;49.404;8.246;2022-08-30T14:09:43;0.82;;;0.50;;
19448;SDS011;9863;49.404;8.246;2022-08-30T14:12:12;0.80;;;0.68;;
19448;SDS011;9863;49.404;8.246;2022-08-30T14:14:40;0.68;;;0.55;;
19448;SDS011;9863;49.404;8.246;2022-08-30T14:17:10;0.77;;;0.57;;
19448;SDS011;9863;49.404;8.246;2022-08-30T14:19:38;0.70;;;0.45;;
19448;SDS011;9863;49.404;8.246;2022-08-30T14:22:07;0.63;;;0.35;;
19448;SDS011;9863;49.404;8.246;2022-08-30T14:24:36;0.75;;;0.57;;
19448;SDS011;9863;49.404;8.246;2022-08-30T14:27:05;1.05;;;0.52;;
19448;SDS011;9863;49.404;8.246;2022-08-30T14:29:33;0.95;;;0.50;;
19448;SDS011;9863;49.404;8.246;2022-08-30T14:32:02;0.93;;;0.50;;
19448;SDS011;9863;49.404;8.246;2022-08-30T14:34:30;1.80;;;0.95;;
19448;SDS011;9863;49.404;8.246;2022-08-30T14:36:58;0.88;;;0.52;;
19448;SDS011;9863;49.404;8.246;2022-08-30T14:39:47;1.00;;;0.70;;
19448;SDS011;9863;49.404;8.246;2022-08-30T14:42:35;0.80;;;0.40;;
19448;SDS011;9863;49.404;8.246;2022-08-30T14:45:23;1.40;;;0.68;;
19448;SDS011;9863;49.404;8.246;2022-08-30T14:48:12;1.48;;;0.65;;
19448;SDS011;9863;49.404;8.246;2022-08-30T14:51:01;0.93;;;0.50;;
19448;SDS011;9863;49.404;8.246;2022-08-30T14:53:58;2.13;;;1.00;;
19448;SDS011;9863;49.404;8.246;2022-08-30T14:56:32;1.67;;;0.90;;
19448;SDS011;9863;49.404;8.246;2022-08-30T14:59:04;2.42;;;1.20;;
19448;SDS011;9863;49.404;8.246;2022-08-30T15:01:37;0.40;;;0.40;;
19448;SDS011;9863;49.404;8.246;2022-08-30T15:04:09;2.22;;;1.27;;
19448;SDS011;9863;49.404;8.246;2022-08-30T15:06:39;1.17;;;0.63;;
19448;SDS011;9863;49.404;8.246;2022-08-30T15:09:13;1.05;;;0.68;;
19448;SDS011;9863;49.404;8.246;2022-08-30T15:11:50;0.50;;;0.38;;
19448;SDS011;9863;49.404;8.246;2022-08-30T15:14:24;0.55;;;0.38;;
19448;SDS011;9863;49.404;8.246;2022-08-30T15:16:54;0.98;;;0.60;;
19448;SDS011;9863;49.404;8.246;2022-08-30T15:19:25;0.90;;;0.68;;
19448;SDS011;9863;49.404;8.246;2022-08-30T15:21:57;0.70;;;0.60;;
19448;SDS011;9863;49.404;8.246;2022-08-30T15:24:30;1.15;;;1.02;;
19448;SDS011;9863;49.404;8.246;2022-08-30T15:27:00;0.80;;;0.60;;
19448;SDS011;9863;49.404;8.246;2022-08-30T15:29:28;0.80;;;0.50;;
19448;SDS011;9863;49.404;8.246;2022-08-30T15:31:58;0.85;;;0.65;;
19448;SDS011;9863;49.404;8.246;2022-08-30T15:34:27;1.02;;;0.60;;
19448;SDS011;9863;49.404;8.246;2022-08-30T15:36:57;2.42;;;1.30;;
19448;SDS011;9863;49.404;8.246;2022-08-30T15:39:25;3.47;;;1.60;;
19448;SDS011;9863;49.404;8.246;2022-08-30T15:41:55;2.33;;;0.98;;
19448;SDS011;9863;49.404;8.246;2022-08-30T15:44:30;1.95;;;1.00;;
19448;SDS011;9863;49.404;8.246;2022-08-30T15:47:00;2.33;;;1.10;;
19448;SDS011;9863;49.404;8.246;2022-08-30T15:49:32;1.45;;;0.75;;
19448;SDS011;9863;49.404;8.246;2022-08-30T15:52:00;1.10;;;0.70;;
19448;SDS011;9863;49.404;8.246;2022-08-30T15:54:32;1.45;;;0.75;;
19448;SDS011;9863;49.404;8.246;2022-08-30T15:57:01;0.93;;;0.50;;
19448;SDS011;9863;49.404;8.246;2022-08-30T15:59:31;0.45;;;0.38;;
19448;SDS011;9863;49.404;8.246;2022-08-30T16:02:00;0.30;;;0.30;;
19448;SDS011;9863;49.404;8.246;2022-08-30T16:04:29;0.43;;;0.43;;
19448;SDS011;9863;49.404;8.246;2022-08-30T16:06:57;0.25;;;0.25;;
19448;SDS011;9863;49.404;8.246;2022-08-30T16:09:25;0.10;;;0.10;;
19448;SDS011;9863;49.404;8.246;2022-08-30T16:11:59;0.10;;;0.10;;
19448;SDS011;9863;49.404;8.246;2022-08-30T16:14:30;0.08;;;0.08;;
19448;SDS011;9863;49.404;8.246;2022-08-30T16:17:00;0.00;;;0.00;;
19448;SDS011;9863;49.404;8.246;2022-08-30T16:19:30;0.00;;;0.00;;
19448;SDS011;9863;49.404;8.246;2022-08-30T16:21:58;0.00;;;0.00;;
19448;SDS011;9863;49.404;8.246;2022-08-30T16:24:27;0.00;;;0.00;;
19448;SDS011;9863;49.404;8.246;2022-08-30T16:26:55;0.00;;;0.00;;
19448;SDS011;9863;49.404;8.246;2022-08-30T16:29:23;0.08;;;0.08;;
19448;SDS011;9863;49.404;8.246;2022-08-30T16:31:51;0.20;;;0.20;;
19448;SDS011;9863;49.404;8.246;2022-08-30T16:34:41;0.35;;;0.35;;
19448;SDS011;9863;49.404;8.246;2022-08-30T16:37:32;0.00;;;0.00;;
19448;SDS011;9863;49.404;8.246;2022-08-30T16:40:00;0.10;;;0.10;;
19448;SDS011;9863;49.404;8.246;2022-08-30T16:42:28;0.00;;;0.00;;
19448;SDS011;9863;49.404;8.246;2022-08-30T16:44:56;0.00;;;0.00;;
19448;SDS011;9863;49.404;8.246;2022-08-30T16:47:25;0.10;;;0.10;;
19448;SDS011;9863;49.404;8.246;2022-08-30T16:49:53;0.00;;;0.00;;
19448;SDS011;9863;49.404;8.246;2022-08-30T16:52:20;0.00;;;0.00;;
19448;SDS011;9863;49.404;8.246;2022-08-30T16:54:49;0.00;;;0.00;;
19448;SDS011;9863;49.404;8.246;2022-08-30T16:57:18;0.00;;;0.00;;
19448;SDS011;9863;49.404;8.246;2022-08-30T16:59:46;0.00;;;0.00;;
19448;SDS011;9863;49.404;8.246;2022-08-30T17:02:18;0.00;;;0.00;;
19448;SDS011;9863;49.404;8.246;2022-08-30T17:04:46;0.00;;;0.00;;
19448;SDS011;9863;49.404;8.246;2022-08-30T17:07:19;0.20;;;0.20;;
19448;SDS011;9863;49.404;8.246;2022-08-30T17:09:48;0.13;;;0.13;;
19448;SDS011;9863;49.404;8.246;2022-08-30T17:12:17;0.03;;;0.03;;
19448;SDS011;9863;49.404;8.246;2022-08-30T17:14:45;0.00;;;0.00;;
19448;SDS011;9863;49.404;8.246;2022-08-30T17:17:13;0.32;;;0.32;;
19448;SDS011;9863;49.404;8.246;2022-08-30T17:19:45;0.10;;;0.10;;
19448;SDS011;9863;49.404;8.246;2022-08-30T17:22:13;0.10;;;0.10;;
19448;SDS011;9863;49.404;8.246;2022-08-30T17:24:41;0.10;;;0.10;;
19448;SDS011;9863;49.404;8.246;2022-08-30T17:27:09;0.25;;;0.25;;
19448;SDS011;9863;49.404;8.246;2022-08-30T17:29:37;0.30;;;0.30;;
19448;SDS011;9863;49.404;8.246;2022-08-30T17:32:06;0.00;;;0.00;;
19448;SDS011;9863;49.404;8.246;2022-08-30T17:34:34;0.00;;;0.00;;